createdAt,value
2023-03-21T05:24:28.361Z,58.16
2023-03-21T05:29:41.262Z,57.66
2023-03-21T05:32:08.101Z,57.00
2023-03-21T05:34:34.993Z,56.04
2023-03-21T05:37:03.913Z,54.61
2023-03-21T05:39:30.720Z,53.56
2023-03-21T05:41:57.586Z,53.08
2023-03-21T05:44:24.379Z,54.47
2023-03-21T05:46:50.888Z,53.58
2023-03-21T05:49:19.878Z,53.51
2023-03-21T05:51:47.285Z,54.38
2023-03-21T05:54:14.185Z,52.99
2023-03-21T05:56:41.618Z,52.24
2023-03-21T05:59:08.461Z,51.36
2023-03-21T06:01:35.163Z,52.56
2023-03-21T06:04:01.976Z,51.29
2023-03-21T06:06:28.781Z,51.25
2023-03-21T06:08:58.786Z,51.33
2023-03-21T06:11:29.843Z,50.83
2023-03-21T06:13:59.872Z,50.71
2023-03-21T06:16:26.650Z,51.33
2023-03-21T06:18:55.440Z,50.62
2023-03-21T06:21:21.940Z,50.91
2023-03-21T06:23:48.783Z,51.08
2023-03-21T06:26:15.573Z,51.25
2023-03-21T06:28:42.128Z,51.63
2023-03-21T06:31:09.691Z,53.04
2023-03-21T06:33:36.413Z,54.29
2023-03-21T06:36:03.582Z,54.80
2023-03-21T06:38:31.169Z,54.28
2023-03-21T06:41:00.323Z,53.79
2023-03-21T06:43:29.094Z,53.56
2023-03-21T06:45:55.600Z,53.91
2023-03-21T06:48:23.089Z,53.96
2023-03-21T06:50:50.814Z,53.97
2023-03-21T06:53:17.470Z,55.39
2023-03-21T06:55:46.442Z,54.49
2023-03-21T06:58:13.503Z,53.35
2023-03-21T07:00:41.750Z,52.98
2023-03-21T07:03:08.509Z,54.85
2023-03-21T07:05:35.553Z,54.21
2023-03-21T07:08:02.242Z,53.96
2023-03-21T07:10:29.082Z,53.20
2023-03-21T07:12:55.871Z,53.36
2023-03-21T07:15:24.910Z,53.27
2023-03-21T07:20:36.653Z,52.79
2023-03-21T07:23:03.983Z,54.71
2023-03-21T07:25:30.679Z,55.18
2023-03-21T07:27:57.738Z,54.21
2023-03-21T07:30:24.648Z,53.65
2023-03-21T07:32:58.698Z,53.04
2023-03-21T07:35:26.205Z,52.66
2023-03-21T07:37:53.168Z,52.46
2023-03-21T07:40:22.119Z,51.28
2023-03-21T07:42:49.700Z,51.53
2023-03-21T07:45:19.878Z,50.92
2023-03-21T07:47:47.721Z,50.71
2023-03-21T07:50:15.290Z,50.77
2023-03-21T07:52:41.817Z,51.11
2023-03-21T07:55:08.418Z,50.50
2023-03-21T07:57:35.901Z,50.50
2023-03-21T08:00:04.273Z,50.20
2023-03-21T08:02:31.012Z,50.34
2023-03-21T08:05:04.206Z,51.52
2023-03-21T08:07:35.104Z,50.87
2023-03-21T08:10:01.871Z,50.87
2023-03-21T08:12:30.841Z,50.86
2023-03-21T08:15:01.004Z,50.64
2023-03-21T08:17:30.473Z,50.00
2023-03-21T08:19:57.297Z,50.06
2023-03-21T08:22:24.314Z,50.97
2023-03-21T08:24:52.980Z,50.36
2023-03-21T08:27:21.844Z,51.59
2023-03-21T08:29:48.620Z,53.08
2023-03-21T08:32:16.127Z,51.10
2023-03-21T08:34:42.953Z,50.01
2023-03-21T08:37:12.091Z,49.69
2023-03-21T08:39:39.258Z,52.81
2023-03-21T08:42:06.666Z,51.96
2023-03-21T08:44:33.457Z,51.51
2023-03-21T08:46:59.990Z,51.02
2023-03-21T08:49:29.347Z,49.06
2023-03-21T08:51:56.181Z,50.09
2023-03-21T08:54:23.215Z,49.29
2023-03-21T08:56:54.315Z,48.75
2023-03-21T08:59:21.151Z,48.34
2023-03-21T09:01:48.033Z,48.07
2023-03-21T09:04:15.007Z,47.71
2023-03-21T09:06:43.602Z,46.95
2023-03-21T09:09:10.617Z,46.42
2023-03-21T09:11:57.430Z,45.99
2023-03-21T09:14:44.004Z,45.37
2023-03-21T09:17:32.130Z,46.43
2023-03-21T09:20:19.451Z,47.22
2023-03-21T09:22:46.813Z,48.19
2023-03-21T09:25:14.308Z,47.31
2023-03-21T09:27:48.529Z,47.74
2023-03-21T09:30:16.187Z,47.12
2023-03-21T09:32:45.127Z,46.59
2023-03-21T09:35:14.168Z,45.87
2023-03-21T09:37:41.055Z,45.18
2023-03-21T09:40:08.696Z,44.48
2023-03-21T09:42:36.153Z,46.55
2023-03-21T09:45:03.763Z,45.14
2023-03-21T09:47:32.760Z,47.90
2023-03-21T09:50:13.144Z,48.11
2023-03-21T09:52:48.906Z,46.41
2023-03-21T09:55:19.278Z,44.91
2023-03-21T09:57:47.043Z,46.48
2023-03-21T10:00:14.067Z,45.29
2023-03-21T10:02:42.430Z,46.51
2023-03-21T10:05:10.259Z,45.23
2023-03-21T10:07:37.856Z,45.02
2023-03-21T10:10:06.926Z,44.88
2023-03-21T10:12:34.884Z,46.15
2023-03-21T10:15:05.580Z,46.58
2023-03-21T10:17:32.975Z,47.39
2023-03-21T10:20:00.242Z,45.60
2023-03-21T10:22:27.291Z,44.31
2023-03-21T10:24:56.539Z,44.17
2023-03-21T10:27:23.823Z,44.44
2023-03-21T10:29:52.095Z,43.66
2023-03-21T10:32:18.761Z,44.60
2023-03-21T10:34:45.625Z,46.24
2023-03-21T10:37:13.835Z,44.59
2023-03-21T10:39:41.053Z,43.24
2023-03-21T10:42:07.854Z,42.30
2023-03-21T10:44:34.732Z,41.83
2023-03-21T10:47:01.870Z,42.87
2023-03-21T10:49:30.130Z,41.54
2023-03-21T10:51:57.924Z,41.41
2023-03-21T10:54:29.225Z,41.00
2023-03-21T10:56:56.145Z,41.27
2023-03-21T10:59:24.626Z,41.21
2023-03-21T11:01:53.374Z,41.64
2023-03-21T11:04:20.742Z,41.60
2023-03-21T11:06:47.521Z,40.63
2023-03-21T11:09:16.320Z,40.85
2023-03-21T11:11:43.470Z,39.88
2023-03-21T11:14:12.916Z,40.01
2023-03-21T11:16:41.292Z,40.34
2023-03-21T11:19:13.334Z,40.69
2023-03-21T11:21:47.425Z,40.49
2023-03-21T11:24:14.255Z,40.40
2023-03-21T11:26:41.142Z,40.28
2023-03-21T11:29:09.003Z,41.06
2023-03-21T11:31:37.881Z,40.44
2023-03-21T11:34:05.515Z,39.86
2023-03-21T11:36:42.203Z,41.11
2023-03-21T11:39:09.047Z,40.17
2023-03-21T11:41:37.288Z,39.14
2023-03-21T11:44:04.113Z,39.17
2023-03-21T11:46:38.190Z,38.35
2023-03-21T11:49:05.386Z,38.35
2023-03-21T11:51:34.844Z,37.66
2023-03-21T11:54:01.735Z,37.12
2023-03-21T11:56:30.691Z,36.73
2023-03-21T11:58:58.438Z,38.21
2023-03-21T12:01:27.302Z,38.66
2023-03-21T12:03:56.615Z,39.11
2023-03-21T12:06:24.613Z,39.20
2023-03-21T12:08:52.242Z,39.32
2023-03-21T12:11:21.015Z,37.94
2023-03-21T12:13:52.753Z,38.35
2023-03-21T12:16:19.728Z,37.25
2023-03-21T12:18:46.786Z,36.29
2023-03-21T12:21:14.375Z,36.95
2023-03-21T12:23:41.202Z,37.13
2023-03-21T12:26:15.393Z,36.72
2023-03-21T12:28:42.198Z,36.51
2023-03-21T12:31:10.745Z,36.65
2023-03-21T12:33:37.561Z,37.69
2023-03-21T12:36:04.643Z,36.67
2023-03-21T12:38:34.911Z,35.89
2023-03-21T12:41:02.582Z,37.93
2023-03-21T12:43:29.601Z,38.53
2023-03-21T12:45:56.540Z,40.42
2023-03-21T12:48:25.562Z,40.13
2023-03-21T12:50:52.285Z,38.23
2023-03-21T12:53:19.489Z,39.39
2023-03-21T12:55:47.393Z,37.88
2023-03-21T12:58:16.432Z,37.14
2023-03-21T13:00:43.415Z,36.33
2023-03-21T13:06:04.605Z,36.55
2023-03-21T13:08:31.857Z,36.32
2023-03-21T13:11:00.244Z,36.56
2023-03-21T13:13:31.545Z,37.54
2023-03-21T13:15:58.531Z,36.51
2023-03-21T13:18:25.290Z,36.95
2023-03-21T13:20:54.122Z,36.25
2023-03-21T13:23:20.779Z,35.97
2023-03-21T13:25:47.494Z,35.65
2023-03-21T13:28:16.185Z,35.42
2023-03-21T13:30:43.800Z,35.90
2023-03-21T13:33:13.013Z,35.31
2023-03-21T13:35:42.372Z,34.62
2023-03-21T13:38:09.369Z,35.15
2023-03-21T13:40:36.026Z,34.96
2023-03-21T13:43:05.016Z,35.36
2023-03-21T13:45:32.572Z,36.23
2023-03-21T13:48:01.964Z,35.61
2023-03-21T13:50:31.595Z,34.82
2023-03-21T13:52:58.943Z,34.63
2023-03-21T13:55:26.740Z,34.75
2023-03-21T13:57:53.328Z,34.92
2023-03-21T14:00:20.748Z,34.52
2023-03-21T14:02:47.349Z,35.96
2023-03-21T14:05:14.071Z,36.43
2023-03-21T14:07:43.691Z,35.57
2023-03-21T14:10:10.288Z,35.09
2023-03-21T14:12:37.266Z,34.39
2023-03-21T14:15:14.164Z,33.59
2023-03-21T14:17:43.295Z,34.15
2023-03-21T14:20:11.763Z,34.12
2023-03-21T14:22:39.204Z,34.87
2023-03-21T14:25:06.644Z,34.94
2023-03-21T14:27:40.589Z,34.42
2023-03-21T14:30:07.931Z,33.97
2023-03-21T14:32:35.082Z,33.90
2023-03-21T14:35:09.038Z,33.54
2023-03-21T14:37:35.869Z,33.22
2023-03-21T14:40:02.751Z,32.65
2023-03-21T14:42:36.926Z,33.82
2023-03-21T14:45:05.973Z,34.83
2023-03-21T14:47:34.931Z,36.09
2023-03-21T14:50:06.545Z,34.82
2023-03-21T14:52:35.640Z,34.34
2023-03-21T14:55:02.930Z,33.96
2023-03-21T14:57:29.751Z,35.51
2023-03-21T14:59:56.375Z,35.88
2023-03-21T15:02:29.726Z,34.83
2023-03-21T15:04:58.911Z,35.59
2023-03-21T15:07:25.819Z,35.47
2023-03-21T15:09:52.409Z,34.81
2023-03-21T15:12:19.912Z,35.30
2023-03-21T15:14:49.287Z,35.23
2023-03-21T15:17:20.723Z,35.47
2023-03-21T15:19:47.624Z,35.11
2023-03-21T15:22:15.022Z,35.27
2023-03-21T15:24:41.559Z,34.86
2023-03-21T15:27:08.452Z,35.52
2023-03-21T15:29:35.228Z,35.39
2023-03-21T15:32:15.480Z,35.26
2023-03-21T15:34:42.705Z,35.43
2023-03-21T15:37:11.796Z,34.28
2023-03-21T15:39:40.640Z,34.31
2023-03-21T15:42:10.177Z,34.54
2023-03-21T15:44:39.842Z,34.49
2023-03-21T15:47:06.725Z,34.65
2023-03-21T15:49:35.869Z,34.19
2023-03-21T15:52:02.449Z,34.55
2023-03-21T15:54:29.115Z,34.33
2023-03-21T15:56:56.047Z,33.79
2023-03-21T15:59:23.683Z,33.99
2023-03-21T16:01:50.523Z,34.52
2023-03-21T16:04:17.193Z,34.92
2023-03-21T16:06:44.035Z,34.62
2023-03-21T16:09:11.278Z,34.30
2023-03-21T16:11:42.916Z,34.56
2023-03-21T16:14:11.855Z,34.66
2023-03-21T16:16:40.489Z,34.37
2023-03-21T16:19:07.327Z,33.88
2023-03-21T16:21:36.274Z,33.86
2023-03-21T16:24:03.646Z,34.77
2023-03-21T16:26:30.596Z,34.68
2023-03-21T16:29:01.782Z,34.17
2023-03-21T16:31:30.698Z,34.07
2023-03-21T16:33:59.801Z,34.03
2023-03-21T16:36:27.429Z,34.61
2023-03-21T16:38:56.707Z,34.20
2023-03-21T16:41:25.894Z,34.60
2023-03-21T16:43:55.710Z,34.26
2023-03-21T16:46:22.706Z,34.06
2023-03-21T16:48:49.625Z,34.17
2023-03-21T16:51:16.451Z,34.22
2023-03-21T16:53:50.630Z,34.00
2023-03-21T16:56:17.196Z,34.83
2023-03-21T16:58:43.963Z,34.88
2023-03-21T17:01:10.956Z,35.09
2023-03-21T17:03:38.353Z,35.64
2023-03-21T17:06:11.185Z,34.79
2023-03-21T17:08:37.986Z,35.11
2023-03-21T17:11:04.509Z,34.76
2023-03-21T17:13:33.481Z,34.73
2023-03-21T17:16:02.486Z,34.95
2023-03-21T17:18:29.298Z,34.96
2023-03-21T17:20:56.572Z,35.68
2023-03-21T17:23:24.024Z,35.72
2023-03-21T17:25:50.992Z,35.60
2023-03-21T17:28:19.728Z,36.35
2023-03-21T17:30:46.880Z,36.38
2023-03-21T17:33:14.126Z,36.08
2023-03-21T17:35:44.179Z,36.35
2023-03-21T17:38:11.070Z,36.56
2023-03-21T17:40:38.818Z,36.57
2023-03-21T17:43:05.740Z,36.33
2023-03-21T17:45:39.544Z,36.99
2023-03-21T17:48:13.818Z,37.24
2023-03-21T17:50:41.072Z,38.06
2023-03-21T18:08:47.770Z,36.75
2023-03-21T18:11:18.600Z,36.78
2023-03-21T18:13:48.204Z,36.51
2023-03-21T18:16:26.614Z,37.48
2023-03-21T18:18:53.368Z,37.76
2023-03-21T18:21:31.289Z,38.40
2023-03-21T18:23:59.596Z,38.24
2023-03-21T18:30:15.753Z,37.88
2023-03-21T18:32:10.006Z,38.21
2023-03-21T18:34:37.750Z,39.55
2023-03-21T18:37:08.562Z,39.38
2023-03-21T18:42:23.194Z,38.69
2023-03-21T18:44:56.517Z,39.34
2023-03-21T18:50:28.037Z,39.84
2023-03-21T18:52:57.024Z,39.74
2023-03-21T18:55:39.698Z,39.90
2023-03-21T18:58:10.435Z,39.65
2023-03-21T19:00:42.804Z,39.59
2023-03-21T19:03:19.147Z,40.03
2023-03-21T19:05:56.648Z,40.34
2023-03-21T19:08:31.090Z,39.85
2023-03-21T19:11:03.727Z,39.71
2023-03-21T19:13:34.360Z,39.34
2023-03-21T19:16:02.427Z,40.13
2023-03-21T19:21:21.945Z,40.01
2023-03-21T19:24:23.027Z,40.89
2023-03-21T19:26:38.824Z,39.79
2023-03-21T19:29:07.377Z,39.79
2023-03-21T19:31:39.529Z,40.05
2023-03-21T19:34:08.974Z,40.67
2023-03-21T19:36:36.500Z,40.53
2023-03-21T19:39:03.346Z,40.81
2023-03-21T19:41:31.532Z,42.19
2023-03-21T19:43:59.077Z,41.86
2023-03-21T19:46:25.984Z,42.02
2023-03-21T19:48:55.932Z,42.32
2023-03-21T19:51:32.478Z,42.31
2023-03-21T19:53:59.408Z,42.20
2023-03-21T19:56:27.293Z,42.42
2023-03-21T19:58:54.345Z,43.17
2023-03-21T20:01:26.808Z,43.44
2023-03-21T20:03:54.341Z,44.06
2023-03-21T20:06:23.348Z,42.69
2023-03-21T20:09:27.626Z,42.82
2023-03-21T20:11:38.077Z,43.03
2023-03-21T20:14:04.732Z,42.97
2023-03-21T20:16:34.613Z,42.19
2023-03-21T20:19:02.269Z,42.15
2023-03-21T20:39:31.558Z,40.91
2023-03-21T20:41:59.576Z,42.35
2023-03-21T20:50:16.153Z,40.59
2023-03-21T20:53:04.597Z,42.84
2023-03-21T20:55:30.860Z,42.28
2023-03-21T20:58:01.922Z,42.66
2023-03-21T21:00:28.898Z,42.73
2023-03-21T21:02:55.840Z,42.17
2023-03-21T21:05:27.814Z,41.12
2023-03-21T21:08:01.970Z,41.92
2023-03-21T21:10:31.354Z,42.64
2023-03-21T21:13:00.173Z,44.16
2023-03-21T21:18:14.708Z,45.45
2023-03-21T21:20:41.975Z,45.49
2023-03-21T21:23:09.687Z,46.31
2023-03-21T21:25:41.713Z,44.43
2023-03-21T21:28:10.057Z,44.44
2023-03-21T21:30:37.858Z,44.56
2023-03-21T21:33:04.756Z,43.51
2023-03-21T21:35:32.691Z,42.51
2023-03-21T21:37:59.920Z,41.60
2023-03-21T21:40:28.143Z,41.10
2023-03-21T21:42:55.412Z,40.18
2023-03-21T21:45:22.179Z,40.01
2023-03-21T21:50:22.495Z,39.96
2023-03-21T21:52:49.981Z,39.75
2023-03-21T21:55:18.846Z,39.20
2023-03-21T21:57:45.445Z,38.70
2023-03-21T22:00:13.938Z,38.63
2023-03-21T22:02:41.357Z,38.92
2023-03-21T22:05:08.950Z,39.42
2023-03-21T22:07:35.687Z,39.07
2023-03-21T22:10:02.545Z,39.14
2023-03-21T22:12:29.618Z,39.62
2023-03-21T22:15:00.515Z,41.17
2023-03-21T22:17:27.513Z,40.48
2023-03-21T22:20:04.992Z,39.43
2023-03-21T22:22:32.887Z,39.82
2023-03-21T22:24:59.848Z,39.65
2023-03-21T22:27:26.692Z,39.73
2023-03-21T22:29:53.358Z,39.89
2023-03-21T22:32:22.335Z,40.03
2023-03-21T22:34:48.999Z,40.47
2023-03-21T22:37:16.356Z,40.28
2023-03-21T22:39:43.122Z,40.28
2023-03-21T22:42:09.799Z,40.41
2023-03-21T22:44:36.645Z,40.52
2023-03-21T22:47:04.031Z,40.21
2023-03-21T22:49:31.112Z,41.39
2023-03-21T22:52:03.595Z,42.00
2023-03-21T22:54:30.566Z,41.46
2023-03-21T22:56:57.338Z,41.27
2023-03-21T22:59:24.770Z,41.53
2023-03-21T23:01:53.532Z,41.92
2023-03-21T23:04:20.380Z,41.22
2023-03-21T23:06:47.214Z,41.27
2023-03-21T23:09:13.841Z,40.82
2023-03-21T23:11:43.249Z,41.13
2023-03-21T23:14:10.123Z,41.38
2023-03-21T23:16:36.719Z,42.37
2023-03-21T23:19:03.554Z,42.43
2023-03-21T23:21:31.132Z,42.80
2023-03-21T23:23:57.736Z,42.58
2023-03-21T23:26:24.676Z,42.33
2023-03-21T23:28:51.178Z,42.07
2023-03-21T23:31:17.719Z,43.55
2023-03-21T23:33:45.130Z,43.46
2023-03-21T23:36:11.679Z,43.50
2023-03-21T23:38:38.239Z,44.07
2023-03-21T23:41:05.035Z,45.00
2023-03-21T23:43:33.760Z,44.09
2023-03-21T23:46:02.850Z,43.80
2023-03-21T23:48:30.299Z,42.92
2023-03-21T23:50:56.945Z,43.57
2023-03-21T23:53:23.786Z,45.42
2023-03-21T23:55:50.326Z,45.27
2023-03-21T23:58:16.830Z,45.40
